sensor_id;sensor_type;location;lat;lon;timestamp;pressure;altitude;pressure_sealevel;temperature;humidity
28167;BME280;15455;53.376;-6.262;2022-10-16T00:02:33;99614.66;;;6.25;100.00
28167;BME280;15455;53.376;-6.262;2022-10-16T00:05:19;99613.75;;;6.26;100.00
28167;BME280;15455;53.376;-6.262;2022-10-16T00:08:05;99622.44;;;6.25;100.00
28167;BME280;15455;53.376;-6.262;2022-10-16T00:10:50;99628.44;;;6.28;100.00
28167;BME280;15455;53.376;-6.262;2022-10-16T00:13:37;99631.91;;;6.25;100.00
28167;BME280;15455;53.376;-6.262;2022-10-16T00:16:24;99629.31;;;6.23;100.00
28167;BME280;15455;53.376;-6.262;2022-10-16T00:19:11;99633.66;;;6.23;100.00
28167;BME280;15455;53.376;-6.262;2022-10-16T00:21:57;99645.75;;;6.25;100.00
28167;BME280;15455;53.376;-6.262;2022-10-16T00:24:42;99655.22;;;6.25;100.00
28167;BME280;15455;53.376;-6.262;2022-10-16T00:27:28;99648.31;;;6.30;100.00
28167;BME280;15455;53.376;-6.262;2022-10-16T00:30:14;99657.81;;;6.34;100.00
28167;BME280;15455;53.376;-6.262;2022-10-16T00:32:59;99650.00;;;6.43;100.00
28167;BME280;15455;53.376;-6.262;2022-10-16T00:35:45;99651.72;;;6.38;100.00
28167;BME280;15455;53.376;-6.262;2022-10-16T00:38:31;99657.75;;;6.45;100.00
28167;BME280;15455;53.376;-6.262;2022-10-16T00:41:17;99656.03;;;6.42;100.00
28167;BME280;15455;53.376;-6.262;2022-10-16T00:47:46;99663.81;;;6.42;100.00
28167;BME280;15455;53.376;-6.262;2022-10-16T00:50:34;99667.28;;;6.45;100.00
28167;BME280;15455;53.376;-6.262;2022-10-16T00:53:21;99658.63;;;6.46;100.00
28167;BME280;15455;53.376;-6.262;2022-10-16T00:56:06;99662.94;;;6.48;100.00
28167;BME280;15455;53.376;-6.262;2022-10-16T00:58:53;99665.50;;;6.53;100.00
28167;BME280;15455;53.376;-6.262;2022-10-16T01:01:38;99676.72;;;6.63;100.00
28167;BME280;15455;53.376;-6.262;2022-10-16T01:04:25;99666.31;;;6.64;100.00
28167;BME280;15455;53.376;-6.262;2022-10-16T01:07:36;99669.81;;;6.63;100.00
28167;BME280;15455;53.376;-6.262;2022-10-16T01:13:21;99675.00;;;6.55;100.00
28167;BME280;15455;53.376;-6.262;2022-10-16T01:16:17;99678.47;;;6.53;100.00
28167;BME280;15455;53.376;-6.262;2022-10-16T01:19:14;99692.31;;;6.53;100.00
28167;BME280;15455;53.376;-6.262;2022-10-16T01:22:02;99681.06;;;6.48;100.00
28167;BME280;15455;53.376;-6.262;2022-10-16T01:24:49;99688.00;;;6.48;100.00
28167;BME280;15455;53.376;-6.262;2022-10-16T01:27:37;99690.59;;;6.46;100.00
28167;BME280;15455;53.376;-6.262;2022-10-16T01:30:30;99699.19;;;6.53;100.00
28167;BME280;15455;53.376;-6.262;2022-10-16T01:33:24;99691.44;;;6.47;100.00
28167;BME280;15455;53.376;-6.262;2022-10-16T01:36:25;99705.25;;;6.46;100.00
28167;BME280;15455;53.376;-6.262;2022-10-16T01:39:14;99708.75;;;6.46;100.00
28167;BME280;15455;53.376;-6.262;2022-10-16T01:42:08;99712.19;;;6.45;100.00
28167;BME280;15455;53.376;-6.262;2022-10-16T01:44:56;99719.13;;;6.45;100.00
28167;BME280;15455;53.376;-6.262;2022-10-16T01:47:43;99726.00;;;6.50;100.00
28167;BME280;15455;53.376;-6.262;2022-10-16T01:50:32;99731.19;;;6.50;100.00
28167;BME280;15455;53.376;-6.262;2022-10-16T01:53:20;99743.28;;;6.45;100.00
28167;BME280;15455;53.376;-6.262;2022-10-16T01:56:09;99742.44;;;6.45;100.00
28167;BME280;15455;53.376;-6.262;2022-10-16T01:59:06;99750.22;;;6.41;100.00
28167;BME280;15455;53.376;-6.262;2022-10-16T02:02:00;99755.41;;;6.40;100.00
28167;BME280;15455;53.376;-6.262;2022-10-16T02:05:01;99759.72;;;6.36;100.00
28167;BME280;15455;53.376;-6.262;2022-10-16T02:07:50;99757.13;;;6.36;100.00
28167;BME280;15455;53.376;-6.262;2022-10-16T02:10:36;99769.25;;;6.33;100.00
28167;BME280;15455;53.376;-6.262;2022-10-16T02:14:05;99777.88;;;6.29;100.00
28167;BME280;15455;53.376;-6.262;2022-10-16T02:16:51;99766.66;;;6.31;100.00
28167;BME280;15455;53.376;-6.262;2022-10-16T02:19:36;99776.16;;;6.28;100.00
28167;BME280;15455;53.376;-6.262;2022-10-16T02:22:38;99789.97;;;6.22;100.00
28167;BME280;15455;53.376;-6.262;2022-10-16T02:25:32;99791.69;;;6.21;100.00
28167;BME280;15455;53.376;-6.262;2022-10-16T02:28:26;99800.34;;;6.17;100.00
28167;BME280;15455;53.376;-6.262;2022-10-16T02:31:18;99792.56;;;6.13;100.00
28167;BME280;15455;53.376;-6.262;2022-10-16T02:34:06;99802.03;;;6.14;100.00
28167;BME280;15455;53.376;-6.262;2022-10-16T02:36:54;99819.31;;;6.12;100.00
28167;BME280;15455;53.376;-6.262;2022-10-16T02:39:41;99813.28;;;6.13;100.00
28167;BME280;15455;53.376;-6.262;2022-10-16T02:42:36;99821.06;;;6.10;100.00
28167;BME280;15455;53.376;-6.262;2022-10-16T02:45:24;99827.09;;;6.07;100.00
28167;BME280;15455;53.376;-6.262;2022-10-16T02:48:10;99833.13;;;6.09;100.00
28167;BME280;15455;53.376;-6.262;2022-10-16T02:50:55;99840.06;;;6.07;100.00
28167;BME280;15455;53.376;-6.262;2022-10-16T02:53:42;99834.88;;;6.08;100.00
28167;BME280;15455;53.376;-6.262;2022-10-16T02:56:27;99846.97;;;6.11;100.00
28167;BME280;15455;53.376;-6.262;2022-10-16T02:59:13;99854.75;;;6.17;100.00
28167;BME280;15455;53.376;-6.262;2022-10-16T03:01:58;99848.69;;;6.18;100.00
28167;BME280;15455;53.376;-6.262;2022-10-16T03:04:44;99846.97;;;6.14;100.00
28167;BME280;15455;53.376;-6.262;2022-10-16T03:07:29;99851.25;;;6.14;100.00
28167;BME280;15455;53.376;-6.262;2022-10-16T03:10:14;99859.88;;;6.08;100.00
28167;BME280;15455;53.376;-6.262;2022-10-16T03:13:00;99854.72;;;6.08;100.00
28167;BME280;15455;53.376;-6.262;2022-10-16T03:15:46;99861.63;;;6.03;100.00
28167;BME280;15455;53.376;-6.262;2022-10-16T03:18:31;99874.56;;;6.07;100.00
28167;BME280;15455;53.376;-6.262;2022-10-16T03:21:17;99879.75;;;6.04;100.00
28167;BME280;15455;53.376;-6.262;2022-10-16T03:24:02;99872.00;;;6.06;100.00
28167;BME280;15455;53.376;-6.262;2022-10-16T03:26:48;99874.56;;;6.04;100.00
28167;BME280;15455;53.376;-6.262;2022-10-16T03:29:33;99882.34;;;6.04;100.00
28167;BME280;15455;53.376;-6.262;2022-10-16T03:32:19;99890.97;;;5.99;100.00
28167;BME280;15455;53.376;-6.262;2022-10-16T03:35:05;99893.56;;;5.97;100.00
28167;BME280;15455;53.376;-6.262;2022-10-16T03:37:51;99893.56;;;6.02;100.00
28167;BME280;15455;53.376;-6.262;2022-10-16T03:40:37;99904.72;;;5.96;100.00
28167;BME280;15455;53.376;-6.262;2022-10-16T03:43:22;99915.13;;;5.98;100.00
28167;BME280;15455;53.376;-6.262;2022-10-16T03:46:07;99915.94;;;5.94;100.00
28167;BME280;15455;53.376;-6.262;2022-10-16T03:48:53;99914.28;;;5.99;100.00
28167;BME280;15455;53.376;-6.262;2022-10-16T03:51:38;99931.56;;;5.98;100.00
28167;BME280;15455;53.376;-6.262;2022-10-16T03:54:24;99930.66;;;6.01;100.00
28167;BME280;15455;53.376;-6.262;2022-10-16T03:57:09;99935.91;;;6.05;100.00
28167;BME280;15455;53.376;-6.262;2022-10-16T03:59:55;99945.41;;;6.10;100.00
28167;BME280;15455;53.376;-6.262;2022-10-16T04:02:40;99949.75;;;6.18;100.00
28167;BME280;15455;53.376;-6.262;2022-10-16T04:05:26;99951.47;;;6.22;100.00
28167;BME280;15455;53.376;-6.262;2022-10-16T04:08:12;99964.41;;;6.22;100.00
28167;BME280;15455;53.376;-6.262;2022-10-16T04:10:57;99973.94;;;6.25;100.00
28167;BME280;15455;53.376;-6.262;2022-10-16T04:13:42;99984.28;;;6.23;100.00
28167;BME280;15455;53.376;-6.262;2022-10-16T04:16:28;99985.13;;;6.21;100.00
28167;BME280;15455;53.376;-6.262;2022-10-16T04:19:14;100004.16;;;6.18;100.00
28167;BME280;15455;53.376;-6.262;2022-10-16T04:21:59;100002.41;;;6.17;100.00
28167;BME280;15455;53.376;-6.262;2022-10-16T04:24:45;100011.03;;;6.12;100.00
28167;BME280;15455;53.376;-6.262;2022-10-16T04:27:30;100017.94;;;6.11;100.00
28167;BME280;15455;53.376;-6.262;2022-10-16T04:30:16;100026.56;;;6.10;100.00
28167;BME280;15455;53.376;-6.262;2022-10-16T04:33:01;100034.34;;;6.15;100.00
28167;BME280;15455;53.376;-6.262;2022-10-16T04:35:47;100042.13;;;6.13;100.00
28167;BME280;15455;53.376;-6.262;2022-10-16T04:38:33;100055.06;;;6.13;100.00
28167;BME280;15455;53.376;-6.262;2022-10-16T04:41:18;100072.34;;;6.10;100.00
28167;BME280;15455;53.376;-6.262;2022-10-16T04:44:04;100078.38;;;6.07;100.00
28167;BME280;15455;53.376;-6.262;2022-10-16T04:46:52;100074.06;;;6.12;100.00
28167;BME280;15455;53.376;-6.262;2022-10-16T04:49:38;100081.81;;;6.07;100.00
28167;BME280;15455;53.376;-6.262;2022-10-16T04:52:23;100085.28;;;6.10;100.00
28167;BME280;15455;53.376;-6.262;2022-10-16T04:55:10;100089.59;;;6.11;100.00
28167;BME280;15455;53.376;-6.262;2022-10-16T04:57:56;100091.34;;;6.10;100.00
28167;BME280;15455;53.376;-6.262;2022-10-16T05:00:41;100096.50;;;6.07;100.00
28167;BME280;15455;53.376;-6.262;2022-10-16T05:03:27;100096.44;;;5.99;100.00
28167;BME280;15455;53.376;-6.262;2022-10-16T05:06:12;100099.03;;;5.98;100.00
28167;BME280;15455;53.376;-6.262;2022-10-16T05:08:58;100102.50;;;6.01;100.00
28167;BME280;15455;53.376;-6.262;2022-10-16T05:11:43;100093.00;;;5.99;100.00
28167;BME280;15455;53.376;-6.262;2022-10-16T05:14:29;100094.72;;;5.98;100.00
28167;BME280;15455;53.376;-6.262;2022-10-16T05:17:15;100092.13;;;5.98;100.00
28167;BME280;15455;53.376;-6.262;2022-10-16T05:20:01;100093.91;;;6.05;100.00
28167;BME280;15455;53.376;-6.262;2022-10-16T05:22:47;100088.72;;;6.04;100.00
28167;BME280;15455;53.376;-6.262;2022-10-16T05:25:32;100090.41;;;6.00;100.00
28167;BME280;15455;53.376;-6.262;2022-10-16T05:28:18;100092.13;;;5.98;100.00
28167;BME280;15455;53.376;-6.262;2022-10-16T05:31:08;100091.22;;;5.96;100.00
28167;BME280;15455;53.376;-6.262;2022-10-16T05:34:00;100104.16;;;5.93;100.00
28167;BME280;15455;53.376;-6.262;2022-10-16T05:36:46;100115.34;;;5.92;100.00
28167;BME280;15455;53.376;-6.262;2022-10-16T05:39:32;100115.38;;;5.94;100.00
28167;BME280;15455;53.376;-6.262;2022-10-16T05:42:17;100113.66;;;5.96;100.00
28167;BME280;15455;53.376;-6.262;2022-10-16T05:45:04;100114.56;;;6.01;100.00
28167;BME280;15455;53.376;-6.262;2022-10-16T05:47:50;100108.56;;;6.05;100.00
28167;BME280;15455;53.376;-6.262;2022-10-16T05:50:36;100121.56;;;6.10;100.00
28167;BME280;15455;53.376;-6.262;2022-10-16T05:53:22;100120.66;;;6.04;100.00
28167;BME280;15455;53.376;-6.262;2022-10-16T05:56:11;100131.03;;;6.06;100.00
28167;BME280;15455;53.376;-6.262;2022-10-16T05:58:57;100131.88;;;6.08;100.00
28167;BME280;15455;53.376;-6.262;2022-10-16T06:01:43;100140.53;;;6.04;100.00
28167;BME280;15455;53.376;-6.262;2022-10-16T06:04:28;100152.59;;;6.02;100.00
28167;BME280;15455;53.376;-6.262;2022-10-16T06:07:13;100162.91;;;5.97;100.00
28167;BME280;15455;53.376;-6.262;2022-10-16T06:09:59;100168.09;;;5.99;100.00
28167;BME280;15455;53.376;-6.262;2022-10-16T06:12:44;100164.66;;;6.00;100.00
28167;BME280;15455;53.376;-6.262;2022-10-16T06:15:30;100168.97;;;5.99;100.00
28167;BME280;15455;53.376;-6.262;2022-10-16T06:18:15;100175.03;;;6.00;100.00
28167;BME280;15455;53.376;-6.262;2022-10-16T06:21:07;100175.88;;;5.97;100.00
28167;BME280;15455;53.376;-6.262;2022-10-16T06:23:54;100178.38;;;5.89;100.00
28167;BME280;15455;53.376;-6.262;2022-10-16T06:26:40;100189.63;;;5.93;100.00
28167;BME280;15455;53.376;-6.262;2022-10-16T06:29:26;100194.78;;;5.93;100.00
28167;BME280;15455;53.376;-6.262;2022-10-16T06:32:11;100198.19;;;5.87;100.00
28167;BME280;15455;53.376;-6.262;2022-10-16T06:34:57;100202.53;;;5.87;100.00
28167;BME280;15455;53.376;-6.262;2022-10-16T06:37:43;100212.00;;;5.85;100.00
28167;BME280;15455;53.376;-6.262;2022-10-16T06:40:28;100213.69;;;5.78;100.00
28167;BME280;15455;53.376;-6.262;2022-10-16T06:43:14;100223.09;;;5.70;100.00
28167;BME280;15455;53.376;-6.262;2022-10-16T06:46:00;100235.06;;;5.60;100.00
28167;BME280;15455;53.376;-6.262;2022-10-16T06:48:46;100250.56;;;5.54;100.00
28167;BME280;15455;53.376;-6.262;2022-10-16T06:51:32;100253.09;;;5.48;100.00
28167;BME280;15455;53.376;-6.262;2022-10-16T06:54:24;100262.50;;;5.41;100.00
28167;BME280;15455;53.376;-6.262;2022-10-16T06:57:10;100273.56;;;5.26;100.00
28167;BME280;15455;53.376;-6.262;2022-10-16T06:59:56;100284.50;;;5.05;100.00
28167;BME280;15455;53.376;-6.262;2022-10-16T07:02:41;100298.16;;;4.95;100.00
28167;BME280;15455;53.376;-6.262;2022-10-16T07:05:26;100304.00;;;4.78;100.00
28167;BME280;15455;53.376;-6.262;2022-10-16T07:08:12;100305.50;;;4.64;100.00
28167;BME280;15455;53.376;-6.262;2022-10-16T07:10:59;100318.16;;;4.45;100.00
28167;BME280;15455;53.376;-6.262;2022-10-16T07:13:45;100316.31;;;4.38;100.00
28167;BME280;15455;53.376;-6.262;2022-10-16T07:16:38;100323.91;;;4.29;100.00
28167;BME280;15455;53.376;-6.262;2022-10-16T07:19:24;100336.78;;;4.26;100.00
28167;BME280;15455;53.376;-6.262;2022-10-16T07:22:14;100342.88;;;4.29;100.00
28167;BME280;15455;53.376;-6.262;2022-10-16T07:25:00;100351.50;;;4.31;100.00
28167;BME280;15455;53.376;-6.262;2022-10-16T07:27:45;100360.22;;;4.37;100.00
28167;BME280;15455;53.376;-6.262;2022-10-16T07:30:35;100371.44;;;4.40;100.00
28167;BME280;15455;53.376;-6.262;2022-10-16T07:33:21;100387.09;;;4.48;100.00
28167;BME280;15455;53.376;-6.262;2022-10-16T07:36:07;100386.25;;;4.50;100.00
28167;BME280;15455;53.376;-6.262;2022-10-16T07:38:58;100391.56;;;4.57;100.00
28167;BME280;15455;53.376;-6.262;2022-10-16T07:41:44;100400.34;;;4.68;100.00
28167;BME280;15455;53.376;-6.262;2022-10-16T07:44:30;100401.25;;;4.72;100.00
28167;BME280;15455;53.376;-6.262;2022-10-16T07:47:15;100414.25;;;4.76;100.00
28167;BME280;15455;53.376;-6.262;2022-10-16T07:50:01;100416.91;;;4.81;100.00
28167;BME280;15455;53.376;-6.262;2022-10-16T07:52:46;100424.78;;;4.89;100.00
28167;BME280;15455;53.376;-6.262;2022-10-16T07:55:32;100436.94;;;4.93;100.00
28167;BME280;15455;53.376;-6.262;2022-10-16T07:58:17;100443.97;;;5.01;100.00
28167;BME280;15455;53.376;-6.262;2022-10-16T08:01:10;100454.44;;;5.12;100.00
28167;BME280;15455;53.376;-6.262;2022-10-16T08:03:56;100460.63;;;5.22;100.00
28167;BME280;15455;53.376;-6.262;2022-10-16T08:06:42;100468.53;;;5.33;100.00
28167;BME280;15455;53.376;-6.262;2022-10-16T08:09:27;100468.72;;;5.45;100.00
28167;BME280;15455;53.376;-6.262;2022-10-16T08:12:12;100470.63;;;5.59;100.00
28167;BME280;15455;53.376;-6.262;2022-10-16T08:14:58;100469.06;;;5.71;100.00
28167;BME280;15455;53.376;-6.262;2022-10-16T08:17:43;100468.34;;;5.83;100.00
28167;BME280;15455;53.376;-6.262;2022-10-16T08:20:30;100465.94;;;5.96;100.00
28167;BME280;15455;53.376;-6.262;2022-10-16T08:23:16;100462.66;;;6.11;100.00
28167;BME280;15455;53.376;-6.262;2022-10-16T08:26:04;100464.50;;;6.22;100.00
28167;BME280;15455;53.376;-6.262;2022-10-16T08:28:51;100458.59;;;6.33;100.00
28167;BME280;15455;53.376;-6.262;2022-10-16T08:31:37;100444.88;;;6.43;100.00
28167;BME280;15455;53.376;-6.262;2022-10-16T08:34:22;100448.44;;;6.54;100.00
28167;BME280;15455;53.376;-6.262;2022-10-16T08:37:07;100443.31;;;6.62;100.00
28167;BME280;15455;53.376;-6.262;2022-10-16T08:39:56;100447.72;;;6.71;100.00
28167;BME280;15455;53.376;-6.262;2022-10-16T08:43:01;100438.28;;;6.81;100.00
28167;BME280;15455;53.376;-6.262;2022-10-16T08:49:35;100444.53;;;7.12;100.00
28167;BME280;15455;53.376;-6.262;2022-10-16T08:52:25;100449.84;;;7.27;100.00
28167;BME280;15455;53.376;-6.262;2022-10-16T08:55:51;100456.88;;;7.45;100.00
28167;BME280;15455;53.376;-6.262;2022-10-16T08:58:37;100460.44;;;7.63;100.00
28167;BME280;15455;53.376;-6.262;2022-10-16T09:01:25;100461.38;;;7.77;100.00
28167;BME280;15455;53.376;-6.262;2022-10-16T09:16:26;100453.78;;;8.50;100.00
28167;BME280;15455;53.376;-6.262;2022-10-16T09:19:24;100463.34;;;8.60;100.00
28167;BME280;15455;53.376;-6.262;2022-10-16T09:22:15;100463.34;;;8.68;100.00
28167;BME280;15455;53.376;-6.262;2022-10-16T09:25:11;100468.56;;;8.80;100.00
28167;BME280;15455;53.376;-6.262;2022-10-16T09:27:57;100476.38;;;8.85;100.00
28167;BME280;15455;53.376;-6.262;2022-10-16T09:30:43;100485.91;;;8.94;100.00
28167;BME280;15455;53.376;-6.262;2022-10-16T09:33:33;100482.44;;;8.99;100.00
28167;BME280;15455;53.376;-6.262;2022-10-16T09:36:21;100491.13;;;9.11;100.00
28167;BME280;15455;53.376;-6.262;2022-10-16T09:39:10;100485.03;;;9.18;100.00
28167;BME280;15455;53.376;-6.262;2022-10-16T09:41:56;100482.41;;;9.23;100.00
28167;BME280;15455;53.376;-6.262;2022-10-16T09:44:47;100491.09;;;9.32;100.00
28167;BME280;15455;53.376;-6.262;2022-10-16T09:47:37;100486.75;;;9.41;100.00
28167;BME280;15455;53.376;-6.262;2022-10-16T09:50:26;100486.72;;;9.50;100.00
28167;BME280;15455;53.376;-6.262;2022-10-16T09:53:14;100481.47;;;9.54;100.00
28167;BME280;15455;53.376;-6.262;2022-10-16T09:56:00;100471.94;;;9.60;100.00
28167;BME280;15455;53.376;-6.262;2022-10-16T09:58:54;100481.44;;;9.70;100.00
28167;BME280;15455;53.376;-6.262;2022-10-16T10:04:25;100492.66;;;9.90;100.00
28167;BME280;15455;53.376;-6.262;2022-10-16T10:07:20;100492.63;;;10.01;100.00
28167;BME280;15455;53.376;-6.262;2022-10-16T10:10:29;100491.72;;;10.13;100.00
28167;BME280;15455;53.376;-6.262;2022-10-16T10:13:22;100488.22;;;10.19;100.00
28167;BME280;15455;53.376;-6.262;2022-10-16T10:16:09;100482.97;;;10.23;100.00
28167;BME280;15455;53.376;-6.262;2022-10-16T10:18:59;100482.03;;;10.32;100.00
28167;BME280;15455;53.376;-6.262;2022-10-16T10:21:45;100477.72;;;10.37;100.00
28167;BME280;15455;53.376;-6.262;2022-10-16T10:24:30;100468.97;;;10.38;100.00
28167;BME280;15455;53.376;-6.262;2022-10-16T10:27:18;100462.84;;;10.44;100.00
28167;BME280;15455;53.376;-6.262;2022-10-16T10:42:55;100468.78;;;10.69;100.00
28167;BME280;15455;53.376;-6.262;2022-10-16T10:45:46;100480.94;;;10.73;100.00
28167;BME280;15455;53.376;-6.262;2022-10-16T11:01:39;100499.06;;;10.95;100.00
28167;BME280;15455;53.376;-6.262;2022-10-16T11:08:07;100481.63;;;10.97;100.00
28167;BME280;15455;53.376;-6.262;2022-10-16T11:11:00;100487.69;;;11.01;100.00
28167;BME280;15455;53.376;-6.262;2022-10-16T11:14:00;100498.13;;;11.02;100.00
28167;BME280;15455;53.376;-6.262;2022-10-16T11:16:56;100498.97;;;11.04;100.00
28167;BME280;15455;53.376;-6.262;2022-10-16T11:22:42;100495.53;;;10.96;100.00
28167;BME280;15455;53.376;-6.262;2022-10-16T11:25:31;100494.72;;;10.91;100.00
28167;BME280;15455;53.376;-6.262;2022-10-16T11:28:39;100501.69;;;10.92;100.00
28167;BME280;15455;53.376;-6.262;2022-10-16T11:31:50;100505.22;;;10.85;100.00
28167;BME280;15455;53.376;-6.262;2022-10-16T11:34:43;100506.94;;;10.86;100.00
28167;BME280;15455;53.376;-6.262;2022-10-16T11:37:38;100493.00;;;10.88;100.00
28167;BME280;15455;53.376;-6.262;2022-10-16T11:40:32;100500.84;;;10.88;100.00
28167;BME280;15455;53.376;-6.262;2022-10-16T11:43:28;100502.53;;;10.94;100.00
28167;BME280;15455;53.376;-6.262;2022-10-16T11:46:20;100489.53;;;10.88;100.00
28167;BME280;15455;53.376;-6.262;2022-10-16T11:49:15;100487.78;;;10.90;100.00
28167;BME280;15455;53.376;-6.262;2022-10-16T11:52:20;100491.25;;;10.89;100.00
28167;BME280;15455;53.376;-6.262;2022-10-16T12:01:03;100471.28;;;10.82;100.00
28167;BME280;15455;53.376;-6.262;2022-10-16T12:07:09;100468.69;;;10.82;100.00
28167;BME280;15455;53.376;-6.262;2022-10-16T12:09:57;100465.19;;;10.83;100.00
28167;BME280;15455;53.376;-6.262;2022-10-16T12:12:45;100451.31;;;10.81;100.00
28167;BME280;15455;53.376;-6.262;2022-10-16T12:15:33;100453.00;;;10.82;100.00
28167;BME280;15455;53.376;-6.262;2022-10-16T12:18:41;100458.28;;;10.75;100.00
28167;BME280;15455;53.376;-6.262;2022-10-16T12:21:30;100447.88;;;10.74;100.00
28167;BME280;15455;53.376;-6.262;2022-10-16T12:27:40;100446.13;;;10.74;100.00
28167;BME280;15455;53.376;-6.262;2022-10-16T12:30:29;100437.44;;;10.72;100.00
28167;BME280;15455;53.376;-6.262;2022-10-16T12:33:33;100452.25;;;10.73;100.00
28167;BME280;15455;53.376;-6.262;2022-10-16T12:36:34;100447.88;;;10.72;100.00
28167;BME280;15455;53.376;-6.262;2022-10-16T12:39:22;100448.75;;;10.70;100.00
28167;BME280;15455;53.376;-6.262;2022-10-16T12:45:30;100460.09;;;10.70;100.00
28167;BME280;15455;53.376;-6.262;2022-10-16T12:48:21;100460.97;;;10.69;100.00
28167;BME280;15455;53.376;-6.262;2022-10-16T12:54:18;100460.16;;;10.61;100.00
28167;BME280;15455;53.376;-6.262;2022-10-16T12:58:28;100453.19;;;10.60;100.00
28167;BME280;15455;53.376;-6.262;2022-10-16T13:00:44;100438.44;;;10.53;100.00
28167;BME280;15455;53.376;-6.262;2022-10-16T13:04:08;100439.34;;;10.53;100.00
28167;BME280;15455;53.376;-6.262;2022-10-16T13:16:33;100402.91;;;10.33;100.00
28167;BME280;15455;53.376;-6.262;2022-10-16T13:28:59;100382.22;;;10.08;100.00
28167;BME280;15455;53.376;-6.262;2022-10-16T13:31:46;100373.56;;;10.02;100.00
28167;BME280;15455;53.376;-6.262;2022-10-16T13:34:32;100373.59;;;9.99;100.00
28167;BME280;15455;53.376;-6.262;2022-10-16T13:37:19;100379.69;;;9.96;100.00
28167;BME280;15455;53.376;-6.262;2022-10-16T13:40:22;100377.06;;;9.96;100.00
28167;BME280;15455;53.376;-6.262;2022-10-16T13:43:08;100378.81;;;9.97;100.00
28167;BME280;15455;53.376;-6.262;2022-10-16T13:46:01;100370.16;;;9.95;100.00
28167;BME280;15455;53.376;-6.262;2022-10-16T13:52:03;100372.78;;;9.87;100.00
28167;BME280;15455;53.376;-6.262;2022-10-16T13:54:48;100366.72;;;9.85;100.00
28167;BME280;15455;53.376;-6.262;2022-10-16T13:57:34;100351.94;;;9.84;100.00
28167;BME280;15455;53.376;-6.262;2022-10-16T14:00:25;100326.78;;;9.80;100.00
28167;BME280;15455;53.376;-6.262;2022-10-16T14:03:15;100323.28;;;9.83;100.00
28167;BME280;15455;53.376;-6.262;2022-10-16T14:06:03;100327.63;;;9.84;100.00
28167;BME280;15455;53.376;-6.262;2022-10-16T14:12:12;100322.38;;;9.88;100.00
28167;BME280;15455;53.376;-6.262;2022-10-16T14:14:59;100318.03;;;9.87;100.00
28167;BME280;15455;53.376;-6.262;2022-10-16T14:17:47;100321.53;;;9.89;100.00
28167;BME280;15455;53.376;-6.262;2022-10-16T14:20:34;100324.97;;;9.90;100.00
28167;BME280;15455;53.376;-6.262;2022-10-16T14:23:35;100311.94;;;9.90;100.00
28167;BME280;15455;53.376;-6.262;2022-10-16T14:26:23;100301.50;;;9.91;100.00
28167;BME280;15455;53.376;-6.262;2022-10-16T14:29:15;100290.22;;;9.91;100.00
28167;BME280;15455;53.376;-6.262;2022-10-16T14:32:03;100282.44;;;9.88;100.00
28167;BME280;15455;53.376;-6.262;2022-10-16T14:34:54;100278.06;;;9.90;100.00
28167;BME280;15455;53.376;-6.262;2022-10-16T14:37:40;100262.44;;;9.90;100.00
28167;BME280;15455;53.376;-6.262;2022-10-16T14:40:36;100264.16;;;9.91;100.00
28167;BME280;15455;53.376;-6.262;2022-10-16T14:43:32;100260.66;;;9.92;100.00
28167;BME280;15455;53.376;-6.262;2022-10-16T14:46:21;100258.06;;;9.92;100.00
28167;BME280;15455;53.376;-6.262;2022-10-16T14:51:57;100252.81;;;9.97;100.00
28167;BME280;15455;53.376;-6.262;2022-10-16T14:54:43;100252.75;;;10.03;100.00
28167;BME280;15455;53.376;-6.262;2022-10-16T14:57:31;100250.97;;;10.08;100.00
28167;BME280;15455;53.376;-6.262;2022-10-16T15:00:23;100244.88;;;10.11;100.00
28167;BME280;15455;53.376;-6.262;2022-10-16T15:03:09;100243.97;;;10.15;100.00
28167;BME280;15455;53.376;-6.262;2022-10-16T15:05:55;100236.13;;;10.18;100.00
28167;BME280;15455;53.376;-6.262;2022-10-16T15:08:41;100224.78;;;10.20;100.00
28167;BME280;15455;53.376;-6.262;2022-10-16T15:11:26;100221.28;;;10.24;100.00
28167;BME280;15455;53.376;-6.262;2022-10-16T15:14:12;100214.28;;;10.28;100.00
28167;BME280;15455;53.376;-6.262;2022-10-16T15:17:04;100197.75;;;10.34;100.00
28167;BME280;15455;53.376;-6.262;2022-10-16T15:19:49;100192.47;;;10.37;100.00
28167;BME280;15455;53.376;-6.262;2022-10-16T15:22:36;100189.00;;;10.39;100.00
28167;BME280;15455;53.376;-6.262;2022-10-16T15:28:26;100171.56;;;10.43;100.00
28167;BME280;15455;53.376;-6.262;2022-10-16T15:31:12;100153.31;;;10.43;100.00
28167;BME280;15455;53.376;-6.262;2022-10-16T15:33:58;100154.19;;;10.42;100.00
28167;BME280;15455;53.376;-6.262;2022-10-16T15:36:48;100155.03;;;10.42;100.00
28167;BME280;15455;53.376;-6.262;2022-10-16T15:39:34;100145.50;;;10.38;100.00
28167;BME280;15455;53.376;-6.262;2022-10-16T15:42:25;100142.91;;;10.38;100.00
28167;BME280;15455;53.376;-6.262;2022-10-16T15:45:12;100145.53;;;10.40;100.00
28167;BME280;15455;53.376;-6.262;2022-10-16T15:47:58;100131.59;;;10.39;100.00
28167;BME280;15455;53.376;-6.262;2022-10-16T15:50:43;100129.88;;;10.40;100.00
28167;BME280;15455;53.376;-6.262;2022-10-16T15:53:34;100131.63;;;10.38;100.00
28167;BME280;15455;53.376;-6.262;2022-10-16T15:56:20;100108.19;;;10.35;100.00
28167;BME280;15455;53.376;-6.262;2022-10-16T15:59:07;100116.88;;;10.34;100.00
28167;BME280;15455;53.376;-6.262;2022-10-16T16:01:52;100119.53;;;10.28;100.00
28167;BME280;15455;53.376;-6.262;2022-10-16T16:04:38;100110.00;;;10.25;100.00
28167;BME280;15455;53.376;-6.262;2022-10-16T16:07:28;100099.59;;;10.22;100.00
28167;BME280;15455;53.376;-6.262;2022-10-16T16:10:14;100086.66;;;10.16;100.00
28167;BME280;15455;53.376;-6.262;2022-10-16T16:12:59;100092.78;;;10.10;100.00
28167;BME280;15455;53.376;-6.262;2022-10-16T16:15:45;100089.34;;;10.06;100.00
28167;BME280;15455;53.376;-6.262;2022-10-16T16:18:30;100074.66;;;9.99;100.00
28167;BME280;15455;53.376;-6.262;2022-10-16T16:21:16;100079.09;;;9.91;100.00